WetterOnline ( https://www.wetteronline.ch )

Wetter aktuell Andernach

Aktuelles Wetter: Andernach (75m)

6-stündlich | Neueste Meldungen
Ortszeit Temperatur Wetter
Mi, 24.07. 2:00 17.2° C Regen
Di, 23.07. 20:00 22.2° C leicht bewölkt
Di, 23.07. 14:00 20.9° C leichter Regen
Di, 23.07. 8:00 17.5° C leicht bewölkt
Di, 23.07. 2:00 15.4° C leicht bewölkt
Mo, 22.07. 20:00 24.4° C bedeckt
Mo, 22.07. 14:00 24.3° C bewölkt
Mo, 22.07. 8:00 19.5° C bedeckt
Ortszeit Temperatur Wetter
Mi, 24.07. 2:00 17.2° C Regen
Mi, 24.07. 1:50 17.2° C Regen
Mi, 24.07. 1:40 17.5° C leichter Regen
Mi, 24.07. 1:30 17.7° C Sprühregen
Mi, 24.07. 1:20 17.7° C Sprühregen
Mi, 24.07. 1:10 17.7° C leichter Regen
Mi, 24.07. 1:00 18.2° C Sprühregen
Mi, 24.07. 0:30 19.2° C bedeckt
Mi, 24.07. 0:00 19.2° C bewölkt
Di, 23.07. 23:30 19.3° C wolkig
Di, 23.07. 23:00 19.7° C bewölkt
Ortszeit Relative Feuchte Sichtweite
Mi, 24.07. 2:00 91% 5.0 km
Di, 23.07. 20:00 60% 35 km
Di, 23.07. 14:00 82% 5.0 km
Di, 23.07. 8:00 84% 40 km
Di, 23.07. 2:00 88% 50 km
Mo, 22.07. 20:00 54% 60 km
Mo, 22.07. 14:00 51% 55 km
Mo, 22.07. 8:00 83% 24 km
Ortszeit Relative Feuchte Sichtweite
Mi, 24.07. 2:00 91% 5.0 km
Mi, 24.07. 1:50 91% -
Mi, 24.07. 1:40 89% -
Mi, 24.07. 1:30 86% 19 km
Mi, 24.07. 1:20 86% -
Mi, 24.07. 1:10 85% -
Mi, 24.07. 1:00 83% 17 km
Mi, 24.07. 0:30 73% 60 km
Mi, 24.07. 0:00 73% 55 km
Di, 23.07. 23:30 71% 55 km
Di, 23.07. 23:00 68% 55 km
Ortszeit Niederschlagsmenge Niederschlagsart
Mi, 24.07. 2:00 0.5 l/m2 in 6 Std. Regen
Di, 23.07. 20:00 1 l/m2 in 12 Std. Regen
Di, 23.07. 14:00 0.2 l/m2 in 6 Std. Regen
Di, 23.07. 8:00 0.0 l/m2 in 12 Std. -
Di, 23.07. 2:00 0.0 l/m2 in 6 Std. -
Mo, 22.07. 20:00 0.0 l/m2 in 12 Std. -
Mo, 22.07. 14:00 0.0 l/m2 in 6 Std. -
Mo, 22.07. 8:00 1 l/m2 in 12 Std. Regen
Ortszeit Niederschlagsmenge Niederschlagsart
Mi, 24.07. 2:00 0.5 l/m2 in 1 Std. Regen
Mi, 24.07. 1:50 keine Meldung -
Mi, 24.07. 1:40 keine Meldung -
Mi, 24.07. 1:30 <0.05 l/m2 in 30 Min -
Mi, 24.07. 1:20 keine Meldung -
Mi, 24.07. 1:10 keine Meldung -
Mi, 24.07. 1:00 <0.05 l/m2 in 1 Std. Regen
Mi, 24.07. 0:30 0.0 l/m2 in 30 Min -
Mi, 24.07. 0:00 0.0 l/m2 in 1 Std. -
Di, 23.07. 23:30 0.0 l/m2 in 30 Min -
Di, 23.07. 23:00 0.0 l/m2 in 1 Std. -
Ortszeit Stärke Spitze Richtung
km/h Bft. km/h Grad Sektor
Mi, 24.07. 2:00 14 3 29 310° NW
Di, 23.07. 20:00 17 3 33 310° NW
Di, 23.07. 14:00 18 3 40 230° SW
Di, 23.07. 8:00 2 1 7 190° S
Di, 23.07. 2:00 4 1 22 180° S
Mo, 22.07. 20:00 7 2 18 310° NW
Mo, 22.07. 14:00 6 1 22 160° S
Mo, 22.07. 8:00 7 2 20 310° NW
Ortszeit Stärke Spitze Richtung
km/h Bft. km/h Grad Sektor
Mi, 24.07. 2:00 14 3 29 310° NW
Mi, 24.07. 1:50 14 3 - 310° NW
Mi, 24.07. 1:40 14 3 - 300° NW
Mi, 24.07. 1:30 11 2 29 310° NW
Mi, 24.07. 1:20 11 2 - 310° NW
Mi, 24.07. 1:10 13 3 - 310° NW
Mi, 24.07. 1:00 11 2 22 300° NW
Mi, 24.07. 0:30 4 1 11 280° W
Mi, 24.07. 0:00 4 1 18 300° NW
Di, 23.07. 23:30 9 2 19 300° NW
Di, 23.07. 23:00 11 2 26 320° NW
Ortszeit Untergrenze Bedeckung Gattung
total tief tief mittel hoch
Mi, 24.07. 2:00 510 m 8/8 8/8 - - -
Di, 23.07. 20:00 1470 m 3/8 3/8 - - -
Di, 23.07. 14:00 450 m 8/8 8/8 - - -
Di, 23.07. 8:00 2100 m 2/8 2/8 - - -
Di, 23.07. 2:00 2700 m 2/8 2/8 - - -
Mo, 22.07. 20:00 1800 m 8/8 8/8 - - -
Mo, 22.07. 14:00 1500 m 7/8 7/8 - - -
Mo, 22.07. 8:00 420 m 8/8 8/8 - - -
Ortszeit Bedeckungsgrad in Achtel und Wolkenuntergrenze
Mi, 24.07. 2:00 4(510m) 5(690m) 8(900m)
Mi, 24.07. 1:50 4(510m) 5(690m) 8(900m)
Mi, 24.07. 1:40 8
Mi, 24.07. 1:30 1(450m) 6(1020m) 8(1260m)
Mi, 24.07. 1:20 1(450m) 6(1020m) 8(1260m)
Mi, 24.07. 1:10 8
Mi, 24.07. 1:00 7(540m) 8(690m)
Mi, 24.07. 0:30 8(630m)
Mi, 24.07. 0:00 7(780m)
Di, 23.07. 23:30 5(900m) 5(1140m)
Di, 23.07. 23:00 7(900m)
Ortszeit Luftdruck NN (hPa) Tendenz (hPa in 3 Std.)
Mi, 24.07. 2:00 1020 + 0,7
Di, 23.07. 20:00 1017 + 0,4
Di, 23.07. 14:00 1017 - 0,3
Di, 23.07. 8:00 1018 - 0,4
Di, 23.07. 2:00 1019 + 0,3
Mo, 22.07. 20:00 1017 + 0,1
Mo, 22.07. 14:00 1017 + 0,1
Mo, 22.07. 8:00 1016 + 1,8
Ortszeit Luftdruck NN (hPa) Tendenz (hPa in 3 Std.)
Mi, 24.07. 2:00 1020 + 0,7
Mi, 24.07. 1:50 1020 keine Meldung
Mi, 24.07. 1:40 1020 keine Meldung
Mi, 24.07. 1:30 1020 + 1,0
Mi, 24.07. 1:20 1020 keine Meldung
Mi, 24.07. 1:10 1020 keine Meldung
Mi, 24.07. 1:00 1020 + 1,4
Mi, 24.07. 0:30 1019 + 1,3
Mi, 24.07. 0:00 1019 + 1,5
Di, 23.07. 23:30 1019 + 1,8
Di, 23.07. 23:00 1019 + 2,1
Ortszeit Schneehöhe (cm)
Mi, 24.07. 2:00 0
Di, 23.07. 20:00 0
Di, 23.07. 14:00 0
Di, 23.07. 8:00 0
Di, 23.07. 2:00 0
Mo, 22.07. 20:00 0
Mo, 22.07. 14:00 0
Mo, 22.07. 8:00 0
Ortszeit Schneehöhe (cm)
Mi, 24.07. 2:00 0
Mi, 24.07. 1:50 0
Mi, 24.07. 1:40 -
Mi, 24.07. 1:30 0
Mi, 24.07. 1:20 0
Mi, 24.07. 1:10 -
Mi, 24.07. 1:00 0
Mi, 24.07. 0:30 0
Mi, 24.07. 0:00 0
Di, 23.07. 23:30 0
Di, 23.07. 23:00 0
Link zu dieser Seite / Seite empfehlen

Das Wetter in ...